sensor_id;sensor_type;location;lat;lon;timestamp;temperature;humidity
23301;DHT22;11819;51.394;12.340;2023-05-10T00:00:08;14.40;69.80
23301;DHT22;11819;51.394;12.340;2023-05-10T00:02:38;14.40;70.00
23301;DHT22;11819;51.394;12.340;2023-05-10T00:05:04;14.40;70.10
23301;DHT22;11819;51.394;12.340;2023-05-10T00:07:30;14.40;70.30
23301;DHT22;11819;51.394;12.340;2023-05-10T00:09:56;14.50;70.20
23301;DHT22;11819;51.394;12.340;2023-05-10T00:12:21;14.50;70.20
23301;DHT22;11819;51.394;12.340;2023-05-10T00:14:47;14.50;70.10
23301;DHT22;11819;51.394;12.340;2023-05-10T00:17:13;14.40;70.20
23301;DHT22;11819;51.394;12.340;2023-05-10T00:19:39;14.40;70.20
23301;DHT22;11819;51.394;12.340;2023-05-10T00:22:04;14.40;70.40
23301;DHT22;11819;51.394;12.340;2023-05-10T00:24:30;14.40;70.30
23301;DHT22;11819;51.394;12.340;2023-05-10T00:26:57;14.50;70.40
23301;DHT22;11819;51.394;12.340;2023-05-10T00:29:22;14.50;70.30
23301;DHT22;11819;51.394;12.340;2023-05-10T00:31:49;14.50;70.30
23301;DHT22;11819;51.394;12.340;2023-05-10T00:34:15;14.50;70.20
23301;DHT22;11819;51.394;12.340;2023-05-10T00:36:41;14.50;70.10
23301;DHT22;11819;51.394;12.340;2023-05-10T00:39:07;14.50;70.00
23301;DHT22;11819;51.394;12.340;2023-05-10T00:41:33;14.50;69.90
23301;DHT22;11819;51.394;12.340;2023-05-10T00:43:59;14.50;69.80
23301;DHT22;11819;51.394;12.340;2023-05-10T00:46:26;14.50;69.90
23301;DHT22;11819;51.394;12.340;2023-05-10T00:48:52;14.50;70.00
23301;DHT22;11819;51.394;12.340;2023-05-10T00:51:18;14.40;69.70
23301;DHT22;11819;51.394;12.340;2023-05-10T00:53:45;14.40;69.80
23301;DHT22;11819;51.394;12.340;2023-05-10T00:56:12;14.50;69.80
23301;DHT22;11819;51.394;12.340;2023-05-10T00:58:39;14.40;69.50
23301;DHT22;11819;51.394;12.340;2023-05-10T01:01:04;14.40;69.60
23301;DHT22;11819;51.394;12.340;2023-05-10T01:03:32;14.40;69.70
23301;DHT22;11819;51.394;12.340;2023-05-10T01:05:58;14.40;69.80
23301;DHT22;11819;51.394;12.340;2023-05-10T01:08:24;14.40;70.00
23301;DHT22;11819;51.394;12.340;2023-05-10T01:10:50;14.40;69.90
23301;DHT22;11819;51.394;12.340;2023-05-10T01:13:30;14.40;70.00
23301;DHT22;11819;51.394;12.340;2023-05-10T01:15:57;14.40;70.20
23301;DHT22;11819;51.394;12.340;2023-05-10T01:18:23;14.30;70.40
23301;DHT22;11819;51.394;12.340;2023-05-10T01:21:22;14.30;70.60
23301;DHT22;11819;51.394;12.340;2023-05-10T01:24:16;14.30;70.50
23301;DHT22;11819;51.394;12.340;2023-05-10T01:27:11;14.30;70.60
23301;DHT22;11819;51.394;12.340;2023-05-10T01:34:58;14.20;71.00
23301;DHT22;11819;51.394;12.340;2023-05-10T01:38:15;14.10;70.90
23301;DHT22;11819;51.394;12.340;2023-05-10T01:40:29;14.10;71.20
23301;DHT22;11819;51.394;12.340;2023-05-10T01:43:01;14.10;71.40
23301;DHT22;11819;51.394;12.340;2023-05-10T01:48:06;14.10;71.30
23301;DHT22;11819;51.394;12.340;2023-05-10T01:50:32;14.00;71.30
23301;DHT22;11819;51.394;12.340;2023-05-10T01:53:00;14.00;71.30
23301;DHT22;11819;51.394;12.340;2023-05-10T01:55:30;14.00;71.30
23301;DHT22;11819;51.394;12.340;2023-05-10T01:58:09;14.00;71.40
23301;DHT22;11819;51.394;12.340;2023-05-10T02:00:35;14.00;71.60
23301;DHT22;11819;51.394;12.340;2023-05-10T02:03:05;14.00;71.70
23301;DHT22;11819;51.394;12.340;2023-05-10T02:05:32;14.00;71.60
23301;DHT22;11819;51.394;12.340;2023-05-10T02:07:59;13.90;71.70
23301;DHT22;11819;51.394;12.340;2023-05-10T02:10:28;13.90;71.80
23301;DHT22;11819;51.394;12.340;2023-05-10T02:12:55;13.90;71.90
23301;DHT22;11819;51.394;12.340;2023-05-10T02:15:24;13.90;72.10
23301;DHT22;11819;51.394;12.340;2023-05-10T02:17:53;13.90;72.10
23301;DHT22;11819;51.394;12.340;2023-05-10T02:20:20;13.80;72.00
23301;DHT22;11819;51.394;12.340;2023-05-10T02:22:49;13.80;72.20
23301;DHT22;11819;51.394;12.340;2023-05-10T02:25:15;13.80;72.30
23301;DHT22;11819;51.394;12.340;2023-05-10T02:27:43;13.80;72.30
23301;DHT22;11819;51.394;12.340;2023-05-10T02:30:10;13.80;72.40
23301;DHT22;11819;51.394;12.340;2023-05-10T02:32:38;13.70;72.40
23301;DHT22;11819;51.394;12.340;2023-05-10T02:35:04;13.70;72.50
23301;DHT22;11819;51.394;12.340;2023-05-10T02:37:31;13.70;72.60
23301;DHT22;11819;51.394;12.340;2023-05-10T02:39:58;13.60;72.70
23301;DHT22;11819;51.394;12.340;2023-05-10T02:42:27;13.60;72.80
23301;DHT22;11819;51.394;12.340;2023-05-10T02:45:01;13.70;72.90
23301;DHT22;11819;51.394;12.340;2023-05-10T02:47:28;13.70;73.00
23301;DHT22;11819;51.394;12.340;2023-05-10T02:49:54;13.70;72.90
23301;DHT22;11819;51.394;12.340;2023-05-10T02:52:27;13.70;73.00
23301;DHT22;11819;51.394;12.340;2023-05-10T02:54:56;13.70;73.10
23301;DHT22;11819;51.394;12.340;2023-05-10T02:57:29;13.60;72.90
23301;DHT22;11819;51.394;12.340;2023-05-10T02:59:58;13.60;72.90
23301;DHT22;11819;51.394;12.340;2023-05-10T03:02:25;13.60;73.10
23301;DHT22;11819;51.394;12.340;2023-05-10T03:04:51;13.60;73.10
23301;DHT22;11819;51.394;12.340;2023-05-10T03:07:17;13.60;73.10
23301;DHT22;11819;51.394;12.340;2023-05-10T03:09:48;13.60;73.30
23301;DHT22;11819;51.394;12.340;2023-05-10T03:12:41;13.60;73.50
23301;DHT22;11819;51.394;12.340;2023-05-10T03:15:17;13.50;73.30
23301;DHT22;11819;51.394;12.340;2023-05-10T03:18:04;13.50;73.50
23301;DHT22;11819;51.394;12.340;2023-05-10T03:20:36;13.50;73.70
23301;DHT22;11819;51.394;12.340;2023-05-10T03:25:52;13.50;73.70
23301;DHT22;11819;51.394;12.340;2023-05-10T03:28:18;13.50;73.90
23301;DHT22;11819;51.394;12.340;2023-05-10T03:30:45;13.50;73.70
23301;DHT22;11819;51.394;12.340;2023-05-10T03:33:12;13.50;73.70
23301;DHT22;11819;51.394;12.340;2023-05-10T03:35:41;13.40;73.90
23301;DHT22;11819;51.394;12.340;2023-05-10T03:38:07;13.40;74.20
23301;DHT22;11819;51.394;12.340;2023-05-10T03:40:32;13.30;74.30
23301;DHT22;11819;51.394;12.340;2023-05-10T03:42:59;13.30;74.60
23301;DHT22;11819;51.394;12.340;2023-05-10T03:45:25;13.30;74.70
23301;DHT22;11819;51.394;12.340;2023-05-10T03:47:51;13.30;74.80
23301;DHT22;11819;51.394;12.340;2023-05-10T03:50:17;13.30;74.70
23301;DHT22;11819;51.394;12.340;2023-05-10T03:52:43;13.30;74.60
23301;DHT22;11819;51.394;12.340;2023-05-10T03:55:09;13.40;74.50
23301;DHT22;11819;51.394;12.340;2023-05-10T03:57:36;13.30;74.40
23301;DHT22;11819;51.394;12.340;2023-05-10T04:00:03;13.40;74.60
23301;DHT22;11819;51.394;12.340;2023-05-10T04:02:40;13.40;74.70
23301;DHT22;11819;51.394;12.340;2023-05-10T04:05:07;13.50;74.70
23301;DHT22;11819;51.394;12.340;2023-05-10T04:07:33;13.50;74.60
23301;DHT22;11819;51.394;12.340;2023-05-10T04:09:59;13.50;74.40
23301;DHT22;11819;51.394;12.340;2023-05-10T04:12:25;13.50;74.30
23301;DHT22;11819;51.394;12.340;2023-05-10T04:14:52;13.50;74.30
23301;DHT22;11819;51.394;12.340;2023-05-10T04:17:18;13.50;74.40
23301;DHT22;11819;51.394;12.340;2023-05-10T04:19:43;13.60;74.60
23301;DHT22;11819;51.394;12.340;2023-05-10T04:22:09;13.50;74.50
23301;DHT22;11819;51.394;12.340;2023-05-10T04:24:35;13.60;74.50
23301;DHT22;11819;51.394;12.340;2023-05-10T04:27:00;13.70;74.30
23301;DHT22;11819;51.394;12.340;2023-05-10T04:29:26;13.70;74.10
23301;DHT22;11819;51.394;12.340;2023-05-10T04:31:52;13.70;74.00
23301;DHT22;11819;51.394;12.340;2023-05-10T04:34:20;13.70;73.90
23301;DHT22;11819;51.394;12.340;2023-05-10T04:36:46;13.70;73.70
23301;DHT22;11819;51.394;12.340;2023-05-10T04:39:11;13.60;73.40
23301;DHT22;11819;51.394;12.340;2023-05-10T04:41:37;13.60;73.60
23301;DHT22;11819;51.394;12.340;2023-05-10T04:44:03;13.50;73.80
23301;DHT22;11819;51.394;12.340;2023-05-10T04:46:29;13.60;74.00
23301;DHT22;11819;51.394;12.340;2023-05-10T04:48:55;13.60;73.80
23301;DHT22;11819;51.394;12.340;2023-05-10T04:51:20;13.70;73.80
23301;DHT22;11819;51.394;12.340;2023-05-10T04:53:46;13.70;73.70
23301;DHT22;11819;51.394;12.340;2023-05-10T04:56:12;13.80;73.70
23301;DHT22;11819;51.394;12.340;2023-05-10T04:58:37;13.80;73.60
23301;DHT22;11819;51.394;12.340;2023-05-10T05:01:07;13.90;73.50
23301;DHT22;11819;51.394;12.340;2023-05-10T05:03:36;14.00;73.30
23301;DHT22;11819;51.394;12.340;2023-05-10T05:06:02;14.00;73.10
23301;DHT22;11819;51.394;12.340;2023-05-10T05:08:28;14.10;72.90
23301;DHT22;11819;51.394;12.340;2023-05-10T05:10:54;14.10;72.70
23301;DHT22;11819;51.394;12.340;2023-05-10T05:13:20;14.00;72.70
23301;DHT22;11819;51.394;12.340;2023-05-10T05:15:47;14.00;72.70
23301;DHT22;11819;51.394;12.340;2023-05-10T05:18:12;14.10;72.80
23301;DHT22;11819;51.394;12.340;2023-05-10T05:20:38;14.10;72.80
23301;DHT22;11819;51.394;12.340;2023-05-10T05:23:04;14.20;72.80
23301;DHT22;11819;51.394;12.340;2023-05-10T05:25:29;14.20;72.40
23301;DHT22;11819;51.394;12.340;2023-05-10T05:27:55;14.20;72.70
23301;DHT22;11819;51.394;12.340;2023-05-10T05:30:21;14.30;72.80
23301;DHT22;11819;51.394;12.340;2023-05-10T05:32:46;14.40;72.60
23301;DHT22;11819;51.394;12.340;2023-05-10T05:35:14;14.60;72.50
23301;DHT22;11819;51.394;12.340;2023-05-10T05:37:41;14.60;72.00
23301;DHT22;11819;51.394;12.340;2023-05-10T05:40:07;14.60;71.90
23301;DHT22;11819;51.394;12.340;2023-05-10T05:42:33;14.70;72.00
23301;DHT22;11819;51.394;12.340;2023-05-10T05:44:58;14.80;72.00
23301;DHT22;11819;51.394;12.340;2023-05-10T05:47:24;14.90;71.90
23301;DHT22;11819;51.394;12.340;2023-05-10T05:49:51;15.00;71.70
23301;DHT22;11819;51.394;12.340;2023-05-10T05:52:18;15.00;71.50
23301;DHT22;11819;51.394;12.340;2023-05-10T05:54:43;15.00;71.30
23301;DHT22;11819;51.394;12.340;2023-05-10T05:57:09;15.10;71.20
23301;DHT22;11819;51.394;12.340;2023-05-10T05:59:34;15.20;71.00
23301;DHT22;11819;51.394;12.340;2023-05-10T06:02:00;15.30;70.80
23301;DHT22;11819;51.394;12.340;2023-05-10T06:04:26;15.30;70.60
23301;DHT22;11819;51.394;12.340;2023-05-10T06:06:52;15.30;70.50
23301;DHT22;11819;51.394;12.340;2023-05-10T06:09:17;15.30;70.40
23301;DHT22;11819;51.394;12.340;2023-05-10T06:11:43;15.30;70.30
23301;DHT22;11819;51.394;12.340;2023-05-10T06:14:08;15.40;70.30
23301;DHT22;11819;51.394;12.340;2023-05-10T06:16:34;15.40;70.20
23301;DHT22;11819;51.394;12.340;2023-05-10T06:19:00;15.40;70.10
23301;DHT22;11819;51.394;12.340;2023-05-10T06:21:26;15.50;70.20
23301;DHT22;11819;51.394;12.340;2023-05-10T06:23:51;15.50;70.30
23301;DHT22;11819;51.394;12.340;2023-05-10T06:26:17;15.60;70.30
23301;DHT22;11819;51.394;12.340;2023-05-10T06:28:43;15.60;70.10
23301;DHT22;11819;51.394;12.340;2023-05-10T06:31:10;15.60;70.10
23301;DHT22;11819;51.394;12.340;2023-05-10T06:33:37;15.70;70.20
23301;DHT22;11819;51.394;12.340;2023-05-10T06:36:02;15.70;70.10
23301;DHT22;11819;51.394;12.340;2023-05-10T06:38:28;15.80;70.10
23301;DHT22;11819;51.394;12.340;2023-05-10T06:40:54;15.80;70.10
23301;DHT22;11819;51.394;12.340;2023-05-10T06:43:19;15.90;70.20
23301;DHT22;11819;51.394;12.340;2023-05-10T06:45:45;15.90;70.20
23301;DHT22;11819;51.394;12.340;2023-05-10T06:48:10;15.90;70.10
23301;DHT22;11819;51.394;12.340;2023-05-10T06:50:39;16.00;69.80
23301;DHT22;11819;51.394;12.340;2023-05-10T06:53:05;16.10;69.80
23301;DHT22;11819;51.394;12.340;2023-05-10T06:55:30;16.10;69.50
23301;DHT22;11819;51.394;12.340;2023-05-10T06:57:56;16.30;69.40
23301;DHT22;11819;51.394;12.340;2023-05-10T07:00:22;16.40;69.30
23301;DHT22;11819;51.394;12.340;2023-05-10T07:02:48;16.40;69.00
23301;DHT22;11819;51.394;12.340;2023-05-10T07:05:13;16.50;68.90
23301;DHT22;11819;51.394;12.340;2023-05-10T07:07:40;16.60;68.80
23301;DHT22;11819;51.394;12.340;2023-05-10T07:10:07;16.60;68.60
23301;DHT22;11819;51.394;12.340;2023-05-10T07:12:33;16.60;68.20
23301;DHT22;11819;51.394;12.340;2023-05-10T07:14:58;16.50;67.80
23301;DHT22;11819;51.394;12.340;2023-05-10T07:17:24;16.50;68.00
23301;DHT22;11819;51.394;12.340;2023-05-10T07:19:50;16.50;68.40
23301;DHT22;11819;51.394;12.340;2023-05-10T07:22:16;16.50;68.60
23301;DHT22;11819;51.394;12.340;2023-05-10T07:24:42;16.50;68.50
23301;DHT22;11819;51.394;12.340;2023-05-10T07:27:08;16.50;68.70
23301;DHT22;11819;51.394;12.340;2023-05-10T07:29:34;16.60;68.30
23301;DHT22;11819;51.394;12.340;2023-05-10T07:32:00;16.60;68.30
23301;DHT22;11819;51.394;12.340;2023-05-10T07:34:26;16.70;68.60
23301;DHT22;11819;51.394;12.340;2023-05-10T07:36:52;16.80;68.60
23301;DHT22;11819;51.394;12.340;2023-05-10T07:39:18;16.90;68.50
23301;DHT22;11819;51.394;12.340;2023-05-10T07:41:43;17.00;68.40
23301;DHT22;11819;51.394;12.340;2023-05-10T07:44:09;17.10;68.50
23301;DHT22;11819;51.394;12.340;2023-05-10T07:46:34;17.20;68.70
23301;DHT22;11819;51.394;12.340;2023-05-10T07:49:00;17.30;69.10
23301;DHT22;11819;51.394;12.340;2023-05-10T07:51:26;17.40;69.50
23301;DHT22;11819;51.394;12.340;2023-05-10T07:53:53;17.40;69.90
23301;DHT22;11819;51.394;12.340;2023-05-10T07:56:27;17.50;69.70
23301;DHT22;11819;51.394;12.340;2023-05-10T07:58:56;17.60;69.10
23301;DHT22;11819;51.394;12.340;2023-05-10T08:01:22;17.60;68.30
23301;DHT22;11819;51.394;12.340;2023-05-10T08:03:49;17.50;68.30
23301;DHT22;11819;51.394;12.340;2023-05-10T08:06:17;17.50;68.50
23301;DHT22;11819;51.394;12.340;2023-05-10T08:08:43;17.50;68.30
23301;DHT22;11819;51.394;12.340;2023-05-10T08:11:09;17.50;68.30
23301;DHT22;11819;51.394;12.340;2023-05-10T08:13:35;17.50;68.80
23301;DHT22;11819;51.394;12.340;2023-05-10T08:16:01;17.50;69.60
23301;DHT22;11819;51.394;12.340;2023-05-10T08:18:28;17.60;69.70
23301;DHT22;11819;51.394;12.340;2023-05-10T08:20:53;17.60;69.70
23301;DHT22;11819;51.394;12.340;2023-05-10T08:23:19;17.60;69.90
23301;DHT22;11819;51.394;12.340;2023-05-10T08:25:45;17.70;70.00
23301;DHT22;11819;51.394;12.340;2023-05-10T08:28:10;17.60;69.90
23301;DHT22;11819;51.394;12.340;2023-05-10T08:30:36;17.60;70.20
23301;DHT22;11819;51.394;12.340;2023-05-10T08:33:01;17.60;70.30
23301;DHT22;11819;51.394;12.340;2023-05-10T08:35:27;17.50;70.50
23301;DHT22;11819;51.394;12.340;2023-05-10T08:37:52;17.40;70.60
23301;DHT22;11819;51.394;12.340;2023-05-10T08:40:19;17.30;71.10
23301;DHT22;11819;51.394;12.340;2023-05-10T08:42:54;17.20;71.80
23301;DHT22;11819;51.394;12.340;2023-05-10T08:45:22;17.20;72.60
23301;DHT22;11819;51.394;12.340;2023-05-10T08:47:48;17.20;73.20
23301;DHT22;11819;51.394;12.340;2023-05-10T08:50:16;17.20;73.40
23301;DHT22;11819;51.394;12.340;2023-05-10T08:52:42;17.20;73.90
23301;DHT22;11819;51.394;12.340;2023-05-10T08:55:09;17.20;74.50
23301;DHT22;11819;51.394;12.340;2023-05-10T08:57:35;17.20;74.70
23301;DHT22;11819;51.394;12.340;2023-05-10T09:00:02;17.10;74.90
23301;DHT22;11819;51.394;12.340;2023-05-10T09:02:28;17.10;75.10
23301;DHT22;11819;51.394;12.340;2023-05-10T09:04:53;17.00;75.30
23301;DHT22;11819;51.394;12.340;2023-05-10T09:07:19;17.10;75.60
23301;DHT22;11819;51.394;12.340;2023-05-10T09:09:46;17.10;76.00
23301;DHT22;11819;51.394;12.340;2023-05-10T09:12:12;16.90;76.20
23301;DHT22;11819;51.394;12.340;2023-05-10T09:14:38;16.80;76.70
23301;DHT22;11819;51.394;12.340;2023-05-10T09:17:04;16.70;77.50
23301;DHT22;11819;51.394;12.340;2023-05-10T09:19:31;16.60;78.10
23301;DHT22;11819;51.394;12.340;2023-05-10T09:21:56;16.50;78.50
23301;DHT22;11819;51.394;12.340;2023-05-10T09:24:25;16.50;79.40
23301;DHT22;11819;51.394;12.340;2023-05-10T09:26:52;16.40;80.20
23301;DHT22;11819;51.394;12.340;2023-05-10T09:29:18;16.30;81.10
23301;DHT22;11819;51.394;12.340;2023-05-10T09:31:51;16.20;81.60
23301;DHT22;11819;51.394;12.340;2023-05-10T09:34:18;16.20;82.20
23301;DHT22;11819;51.394;12.340;2023-05-10T09:37:01;16.10;82.60
23301;DHT22;11819;51.394;12.340;2023-05-10T09:39:37;16.10;83.20
23301;DHT22;11819;51.394;12.340;2023-05-10T09:42:09;16.00;83.80
23301;DHT22;11819;51.394;12.340;2023-05-10T09:44:35;16.00;84.70
23301;DHT22;11819;51.394;12.340;2023-05-10T09:47:02;15.90;85.60
23301;DHT22;11819;51.394;12.340;2023-05-10T09:49:28;15.80;86.30
23301;DHT22;11819;51.394;12.340;2023-05-10T09:52:04;15.80;87.40
23301;DHT22;11819;51.394;12.340;2023-05-10T09:54:30;15.80;88.20
23301;DHT22;11819;51.394;12.340;2023-05-10T09:56:56;15.80;88.90
23301;DHT22;11819;51.394;12.340;2023-05-10T09:59:25;15.90;89.40
23301;DHT22;11819;51.394;12.340;2023-05-10T10:01:52;15.90;89.80
23301;DHT22;11819;51.394;12.340;2023-05-10T10:04:18;16.00;90.10
23301;DHT22;11819;51.394;12.340;2023-05-10T10:06:45;16.00;90.20
23301;DHT22;11819;51.394;12.340;2023-05-10T10:09:10;16.10;90.30
23301;DHT22;11819;51.394;12.340;2023-05-10T10:11:37;16.10;90.40
23301;DHT22;11819;51.394;12.340;2023-05-10T10:14:03;16.20;90.50
23301;DHT22;11819;51.394;12.340;2023-05-10T10:16:30;16.20;90.50
23301;DHT22;11819;51.394;12.340;2023-05-10T10:18:56;16.20;90.50
23301;DHT22;11819;51.394;12.340;2023-05-10T10:21:23;16.10;90.70
23301;DHT22;11819;51.394;12.340;2023-05-10T10:23:48;16.10;90.90
23301;DHT22;11819;51.394;12.340;2023-05-10T10:26:15;16.10;91.10
23301;DHT22;11819;51.394;12.340;2023-05-10T10:28:51;16.20;91.20
23301;DHT22;11819;51.394;12.340;2023-05-10T10:34:09;16.40;91.20
23301;DHT22;11819;51.394;12.340;2023-05-10T10:36:47;16.50;91.20
23301;DHT22;11819;51.394;12.340;2023-05-10T10:39:14;16.50;91.30
23301;DHT22;11819;51.394;12.340;2023-05-10T10:41:49;16.50;91.30
23301;DHT22;11819;51.394;12.340;2023-05-10T11:02:58;16.20;92.30
23301;DHT22;11819;51.394;12.340;2023-05-10T11:05:35;16.20;92.40
23301;DHT22;11819;51.394;12.340;2023-05-10T11:11:02;16.10;92.70
23301;DHT22;11819;51.394;12.340;2023-05-10T11:13:45;16.10;93.00
23301;DHT22;11819;51.394;12.340;2023-05-10T11:18:37;16.00;93.30
23301;DHT22;11819;51.394;12.340;2023-05-10T11:21:04;16.10;93.50
23301;DHT22;11819;51.394;12.340;2023-05-10T11:26:10;16.20;93.90
23301;DHT22;11819;51.394;12.340;2023-05-10T11:31:09;16.20;93.90
23301;DHT22;11819;51.394;12.340;2023-05-10T11:33:45;16.30;93.90
23301;DHT22;11819;51.394;12.340;2023-05-10T11:36:15;16.40;93.90
23301;DHT22;11819;51.394;12.340;2023-05-10T11:38:41;16.50;93.80
23301;DHT22;11819;51.394;12.340;2023-05-10T11:41:11;16.50;93.80
23301;DHT22;11819;51.394;12.340;2023-05-10T11:43:41;16.50;93.80
23301;DHT22;11819;51.394;12.340;2023-05-10T11:46:11;16.50;93.90
23301;DHT22;11819;51.394;12.340;2023-05-10T11:48:41;16.50;94.00
23301;DHT22;11819;51.394;12.340;2023-05-10T11:51:08;16.60;93.80
23301;DHT22;11819;51.394;12.340;2023-05-10T11:53:34;16.70;93.90
23301;DHT22;11819;51.394;12.340;2023-05-10T11:58:30;16.90;93.90
23301;DHT22;11819;51.394;12.340;2023-05-10T12:00:56;16.90;93.90
23301;DHT22;11819;51.394;12.340;2023-05-10T12:03:23;17.00;94.10
23301;DHT22;11819;51.394;12.340;2023-05-10T12:05:48;17.00;94.20
23301;DHT22;11819;51.394;12.340;2023-05-10T12:08:15;17.10;94.20
23301;DHT22;11819;51.394;12.340;2023-05-10T12:10:41;17.10;94.00
23301;DHT22;11819;51.394;12.340;2023-05-10T12:13:17;17.10;93.90
23301;DHT22;11819;51.394;12.340;2023-05-10T12:15:43;17.10;93.90
23301;DHT22;11819;51.394;12.340;2023-05-10T12:18:09;17.10;93.80
23301;DHT22;11819;51.394;12.340;2023-05-10T12:20:36;17.10;93.90
23301;DHT22;11819;51.394;12.340;2023-05-10T12:23:02;17.10;93.90
23301;DHT22;11819;51.394;12.340;2023-05-10T12:25:36;17.10;93.80
23301;DHT22;11819;51.394;12.340;2023-05-10T12:28:08;17.10;94.00
23301;DHT22;11819;51.394;12.340;2023-05-10T12:30:35;17.20;94.10
23301;DHT22;11819;51.394;12.340;2023-05-10T12:35:33;17.20;94.00
23301;DHT22;11819;51.394;12.340;2023-05-10T12:37:59;17.20;94.30
23301;DHT22;11819;51.394;12.340;2023-05-10T12:40:25;17.20;94.30
23301;DHT22;11819;51.394;12.340;2023-05-10T12:42:51;17.30;94.50
23301;DHT22;11819;51.394;12.340;2023-05-10T12:45:18;17.40;94.50
23301;DHT22;11819;51.394;12.340;2023-05-10T12:47:43;17.40;94.50
23301;DHT22;11819;51.394;12.340;2023-05-10T12:50:09;17.40;94.30
23301;DHT22;11819;51.394;12.340;2023-05-10T12:52:36;17.40;94.30
23301;DHT22;11819;51.394;12.340;2023-05-10T12:55:02;17.40;94.40
23301;DHT22;11819;51.394;12.340;2023-05-10T12:57:28;17.40;94.40
23301;DHT22;11819;51.394;12.340;2023-05-10T12:59:55;17.50;94.30
23301;DHT22;11819;51.394;12.340;2023-05-10T13:02:21;17.50;94.20
23301;DHT22;11819;51.394;12.340;2023-05-10T13:04:48;17.60;94.30
23301;DHT22;11819;51.394;12.340;2023-05-10T13:07:14;17.60;94.30
23301;DHT22;11819;51.394;12.340;2023-05-10T13:09:40;17.70;94.20
23301;DHT22;11819;51.394;12.340;2023-05-10T13:12:06;17.70;94.10
23301;DHT22;11819;51.394;12.340;2023-05-10T13:14:31;17.70;93.90
23301;DHT22;11819;51.394;12.340;2023-05-10T13:16:57;17.70;93.90
23301;DHT22;11819;51.394;12.340;2023-05-10T13:19:23;17.60;94.00
23301;DHT22;11819;51.394;12.340;2023-05-10T13:21:51;17.70;94.20
23301;DHT22;11819;51.394;12.340;2023-05-10T13:24:17;17.70;94.40
23301;DHT22;11819;51.394;12.340;2023-05-10T13:26:43;17.70;94.50
23301;DHT22;11819;51.394;12.340;2023-05-10T13:29:09;17.70;94.40
23301;DHT22;11819;51.394;12.340;2023-05-10T13:31:35;17.70;94.40
23301;DHT22;11819;51.394;12.340;2023-05-10T13:34:02;17.60;94.40
23301;DHT22;11819;51.394;12.340;2023-05-10T13:36:28;17.60;94.40
23301;DHT22;11819;51.394;12.340;2023-05-10T13:38:53;17.50;94.50
23301;DHT22;11819;51.394;12.340;2023-05-10T13:41:19;17.40;94.60
23301;DHT22;11819;51.394;12.340;2023-05-10T13:43:44;17.40;94.80
23301;DHT22;11819;51.394;12.340;2023-05-10T13:46:10;17.30;94.80
23301;DHT22;11819;51.394;12.340;2023-05-10T13:48:36;17.30;95.00
23301;DHT22;11819;51.394;12.340;2023-05-10T13:51:04;17.20;95.10
23301;DHT22;11819;51.394;12.340;2023-05-10T13:53:30;17.10;95.30
23301;DHT22;11819;51.394;12.340;2023-05-10T13:55:55;17.10;95.60
23301;DHT22;11819;51.394;12.340;2023-05-10T13:58:22;17.00;95.70
23301;DHT22;11819;51.394;12.340;2023-05-10T14:00:48;17.00;95.70
23301;DHT22;11819;51.394;12.340;2023-05-10T14:03:14;16.90;95.80
23301;DHT22;11819;51.394;12.340;2023-05-10T14:05:40;16.80;96.00
23301;DHT22;11819;51.394;12.340;2023-05-10T14:08:05;16.80;96.20
23301;DHT22;11819;51.394;12.340;2023-05-10T14:10:31;16.70;96.30
23301;DHT22;11819;51.394;12.340;2023-05-10T14:12:57;16.60;96.50
23301;DHT22;11819;51.394;12.340;2023-05-10T14:15:24;16.50;96.60
23301;DHT22;11819;51.394;12.340;2023-05-10T14:17:49;16.40;96.90
23301;DHT22;11819;51.394;12.340;2023-05-10T14:20:17;16.40;97.10
23301;DHT22;11819;51.394;12.340;2023-05-10T14:22:43;16.30;97.20
23301;DHT22;11819;51.394;12.340;2023-05-10T14:25:08;16.30;97.20
23301;DHT22;11819;51.394;12.340;2023-05-10T14:27:34;16.20;97.10
23301;DHT22;11819;51.394;12.340;2023-05-10T14:30:00;16.20;97.00
23301;DHT22;11819;51.394;12.340;2023-05-10T14:32:25;16.10;97.10
23301;DHT22;11819;51.394;12.340;2023-05-10T14:34:52;16.10;97.10
23301;DHT22;11819;51.394;12.340;2023-05-10T14:37:18;16.10;97.20
23301;DHT22;11819;51.394;12.340;2023-05-10T14:39:43;16.00;97.00
23301;DHT22;11819;51.394;12.340;2023-05-10T14:42:09;16.00;97.20
23301;DHT22;11819;51.394;12.340;2023-05-10T14:44:35;16.00;97.30
23301;DHT22;11819;51.394;12.340;2023-05-10T14:47:00;16.00;97.40
23301;DHT22;11819;51.394;12.340;2023-05-10T14:49:26;16.00;97.50
23301;DHT22;11819;51.394;12.340;2023-05-10T14:51:52;16.10;97.90
23301;DHT22;11819;51.394;12.340;2023-05-10T14:54:17;16.10;97.40
23301;DHT22;11819;51.394;12.340;2023-05-10T14:56:43;16.10;97.30
23301;DHT22;11819;51.394;12.340;2023-05-10T14:59:09;16.00;97.40
23301;DHT22;11819;51.394;12.340;2023-05-10T15:01:34;16.00;97.60
23301;DHT22;11819;51.394;12.340;2023-05-10T15:04:05;16.00;97.70
23301;DHT22;11819;51.394;12.340;2023-05-10T15:06:32;16.10;97.80
23301;DHT22;11819;51.394;12.340;2023-05-10T15:08:59;16.20;97.90
23301;DHT22;11819;51.394;12.340;2023-05-10T15:11:27;16.20;98.00
23301;DHT22;11819;51.394;12.340;2023-05-10T15:13:53;16.30;98.00
23301;DHT22;11819;51.394;12.340;2023-05-10T15:16:19;16.30;98.40
23301;DHT22;11819;51.394;12.340;2023-05-10T15:18:45;16.40;98.20
23301;DHT22;11819;51.394;12.340;2023-05-10T15:21:11;16.40;98.30
23301;DHT22;11819;51.394;12.340;2023-05-10T15:23:37;16.50;98.30
23301;DHT22;11819;51.394;12.340;2023-05-10T15:26:02;16.50;98.40
23301;DHT22;11819;51.394;12.340;2023-05-10T15:28:29;16.50;98.60
23301;DHT22;11819;51.394;12.340;2023-05-10T15:30:55;16.50;98.80
23301;DHT22;11819;51.394;12.340;2023-05-10T15:33:22;16.50;98.80
23301;DHT22;11819;51.394;12.340;2023-05-10T15:35:47;16.50;98.60
23301;DHT22;11819;51.394;12.340;2023-05-10T15:38:14;16.30;98.40
23301;DHT22;11819;51.394;12.340;2023-05-10T15:40:40;16.10;98.60
23301;DHT22;11819;51.394;12.340;2023-05-10T15:43:05;16.10;98.80
23301;DHT22;11819;51.394;12.340;2023-05-10T15:45:32;16.00;99.10
23301;DHT22;11819;51.394;12.340;2023-05-10T15:47:58;15.90;99.20
23301;DHT22;11819;51.394;12.340;2023-05-10T15:50:24;15.90;99.40
23301;DHT22;11819;51.394;12.340;2023-05-10T15:52:51;15.90;99.50
23301;DHT22;11819;51.394;12.340;2023-05-10T15:55:17;15.90;99.70
23301;DHT22;11819;51.394;12.340;2023-05-10T15:57:43;15.90;99.90
23301;DHT22;11819;51.394;12.340;2023-05-10T16:00:11;15.90;99.80
23301;DHT22;11819;51.394;12.340;2023-05-10T16:02:40;15.90;99.70